Time;durP1;ratioP1;P1;durP2;ratioP2;P2;SDS_P1;SDS_P2;PMS_P1;PMS_P2;Temp;Humidity;BMP_temperature;BMP_pressure;BME280_temperature;BME280_humidity;BME280_pressure;Samples;Min_cycle;Max_cycle;Signal;HPM_P1;HPM_P2
2023/12/02 00:01:30;;;;;;;31.30;14.33;;;;;;;;;;6284215;22;20365;-92
2023/12/02 00:03:56;;;;;;;20.77;13.93;;;;;;;;;;6284732;22;20436;-91
2023/12/02 00:06:22;;;;;;;23.33;13.40;;;;;;;;;;6285557;22;20377;-91
2023/12/02 00:08:49;;;;;;;22.90;13.90;;;;;;;;;;6287865;22;20388;-90
2023/12/02 00:11:15;;;;;;;24.47;14.70;;;;;;;;;;6285036;22;20413;-90
2023/12/02 00:13:41;;;;;;;22.97;12.03;;;;;;;;;;6286182;22;20372;-90
2023/12/02 00:16:08;;;;;;;27.80;14.60;;;;;;;;;;6285920;22;20379;-89
2023/12/02 00:18:34;;;;;;;22.70;11.13;;;;;;;;;;6284761;22;20463;-90
2023/12/02 00:21:00;;;;;;;23.37;11.83;;;;;;;;;;6283626;22;20377;-90
2023/12/02 00:23:26;;;;;;;18.23;12.00;;;;;;;;;;6284811;22;20433;-90
2023/12/02 00:25:52;;;;;;;30.07;17.13;;;;;;;;;;6287682;22;20463;-91
2023/12/02 00:28:20;;;;;;;21.77;12.27;;;;;;;;;;6284851;22;20383;-91
2023/12/02 00:30:46;;;;;;;21.47;12.53;;;;;;;;;;6286846;22;20388;-90
2023/12/02 00:33:13;;;;;;;20.17;14.40;;;;;;;;;;6286465;22;20460;-91
2023/12/02 00:35:39;;;;;;;20.97;13.50;;;;;;;;;;6284294;22;20736;-90
2023/12/02 00:38:05;;;;;;;26.93;14.00;;;;;;;;;;6285415;22;20361;-91
2023/12/02 00:40:31;;;;;;;20.80;13.53;;;;;;;;;;6283625;22;20418;-91
2023/12/02 00:42:57;;;;;;;26.47;13.60;;;;;;;;;;6287774;22;20388;-91
2023/12/02 00:45:23;;;;;;;30.53;18.10;;;;;;;;;;6284146;22;20510;-92
2023/12/02 00:47:49;;;;;;;22.97;12.33;;;;;;;;;;6284227;22;20455;-91
2023/12/02 00:50:15;;;;;;;24.80;13.57;;;;;;;;;;6284650;22;20386;-91
2023/12/02 00:52:41;;;;;;;18.67;11.87;;;;;;;;;;6286304;22;20376;-91
2023/12/02 00:55:08;;;;;;;23.97;12.83;;;;;;;;;;6285068;22;21074;-91
2023/12/02 00:57:34;;;;;;;25.13;14.80;;;;;;;;;;6286450;22;20380;-90
2023/12/02 01:00:00;;;;;;;31.00;14.40;;;;;;;;;;6284450;22;20398;-91
2023/12/02 01:02:26;;;;;;;26.80;15.40;;;;;;;;;;6289640;22;20380;-91
2023/12/02 01:04:52;;;;;;;28.13;14.30;;;;;;;;;;6286277;22;20956;-91
2023/12/02 01:07:18;;;;;;;24.43;14.00;;;;;;;;;;6287351;22;20379;-91
2023/12/02 01:09:44;;;;;;;18.93;11.37;;;;;;;;;;6289255;22;20407;-91
2023/12/02 01:12:12;;;;;;;25.13;13.87;;;;;;;;;;6289775;22;20411;-91
2023/12/02 01:14:39;;;;;;;22.03;14.30;;;;;;;;;;6291502;22;20380;-92
2023/12/02 01:17:08;;;;;;;22.33;12.70;;;;;;;;;;6286180;22;20372;-91
2023/12/02 01:19:34;;;;;;;32.57;17.97;;;;;;;;;;6284368;22;20399;-90
2023/12/02 01:22:00;;;;;;;35.27;18.80;;;;;;;;;;6284475;22;20369;-91
2023/12/02 01:24:26;;;;;;;25.10;14.57;;;;;;;;;;6284960;22;20816;-91
2023/12/02 01:26:52;;;;;;;22.17;10.93;;;;;;;;;;6284494;22;21126;-90
2023/12/02 01:29:18;;;;;;;24.03;13.23;;;;;;;;;;6286174;22;20404;-91
2023/12/02 01:31:44;;;;;;;25.17;13.80;;;;;;;;;;6287101;22;20376;-91
2023/12/02 01:34:10;;;;;;;25.87;15.67;;;;;;;;;;6287809;22;20399;-90
2023/12/02 01:36:36;;;;;;;27.10;12.90;;;;;;;;;;6284407;22;20380;-91
2023/12/02 01:39:02;;;;;;;25.70;13.70;;;;;;;;;;6289305;22;20384;-91
2023/12/02 01:41:31;;;;;;;26.63;13.50;;;;;;;;;;6285777;22;20368;-91
2023/12/02 01:43:57;;;;;;;32.47;15.63;;;;;;;;;;6288327;22;20428;-91
2023/12/02 01:46:23;;;;;;;24.63;12.77;;;;;;;;;;6286936;22;20389;-91
2023/12/02 01:48:49;;;;;;;24.77;12.13;;;;;;;;;;6291031;22;20712;-91
2023/12/02 01:51:16;;;;;;;22.67;14.67;;;;;;;;;;6285739;22;20384;-90
2023/12/02 01:53:42;;;;;;;19.30;10.40;;;;;;;;;;6288482;22;20503;-91
2023/12/02 01:56:09;;;;;;;21.73;13.03;;;;;;;;;;6287321;22;20384;-91
2023/12/02 01:58:36;;;;;;;30.20;15.10;;;;;;;;;;6285506;22;20487;-89
2023/12/02 02:01:15;;;;;;;26.03;13.83;;;;;;;;;;6285440;22;20428;-91
2023/12/02 02:03:41;;;;;;;24.57;12.97;;;;;;;;;;6286493;22;20360;-90
2023/12/02 02:06:10;;;;;;;17.93;11.70;;;;;;;;;;6286317;22;20380;-91
2023/12/02 02:08:36;;;;;;;21.87;13.50;;;;;;;;;;6287598;22;20395;-90
2023/12/02 02:11:02;;;;;;;18.17;12.40;;;;;;;;;;6285159;22;20412;-89
2023/12/02 02:13:28;;;;;;;22.60;13.60;;;;;;;;;;6286106;22;20376;-90
2023/12/02 02:15:54;;;;;;;22.33;13.53;;;;;;;;;;6283478;22;20929;-90
2023/12/02 02:18:20;;;;;;;30.70;16.30;;;;;;;;;;6288957;22;20400;-90
2023/12/02 02:20:50;;;;;;;28.20;14.00;;;;;;;;;;6284949;22;20820;-90
2023/12/02 02:23:17;;;;;;;25.50;13.63;;;;;;;;;;6285989;22;21159;-90
2023/12/02 02:25:43;;;;;;;22.20;11.60;;;;;;;;;;6284997;22;20456;-90
2023/12/02 02:28:09;;;;;;;32.60;14.73;;;;;;;;;;6286178;22;20353;-89
2023/12/02 02:30:36;;;;;;;23.73;13.27;;;;;;;;;;6284475;22;20384;-90
2023/12/02 02:33:02;;;;;;;33.87;17.80;;;;;;;;;;6286163;22;20390;-90
2023/12/02 02:35:28;;;;;;;24.23;15.07;;;;;;;;;;6284820;22;20376;-89
2023/12/02 02:37:54;;;;;;;29.23;14.00;;;;;;;;;;6283958;22;20376;-90
2023/12/02 02:40:20;;;;;;;27.90;15.70;;;;;;;;;;6285224;22;20466;-90
2023/12/02 02:42:46;;;;;;;21.10;12.37;;;;;;;;;;6285284;22;20509;-90
2023/12/02 02:45:12;;;;;;;16.17;10.20;;;;;;;;;;6285241;22;20426;-90
2023/12/02 02:47:38;;;;;;;29.97;17.47;;;;;;;;;;6284234;22;20373;-89
2023/12/02 02:50:04;;;;;;;26.87;13.40;;;;;;;;;;6218528;23;20483;-90
2023/12/02 02:52:30;;;;;;;21.40;13.60;;;;;;;;;;6193642;23;20375;-90
2023/12/02 02:54:56;;;;;;;21.73;14.10;;;;;;;;;;6217149;22;20392;-90
2023/12/02 02:57:22;;;;;;;26.00;12.80;;;;;;;;;;6216866;23;20410;-90
2023/12/02 02:59:48;;;;;;;22.63;12.30;;;;;;;;;;6218012;22;20383;-90
2023/12/02 03:02:14;;;;;;;33.83;12.97;;;;;;;;;;6218268;22;21079;-90
2023/12/02 03:04:40;;;;;;;17.23;10.50;;;;;;;;;;6221041;22;20434;-90
2023/12/02 03:07:06;;;;;;;26.30;14.07;;;;;;;;;;6217745;22;20394;-89
2023/12/02 03:09:32;;;;;;;24.37;14.80;;;;;;;;;;6220646;22;20405;-90
2023/12/02 03:11:58;;;;;;;22.80;12.00;;;;;;;;;;6217511;22;20877;-90
2023/12/02 03:14:24;;;;;;;20.63;12.07;;;;;;;;;;6218492;23;20384;-90
2023/12/02 03:16:50;;;;;;;27.70;12.37;;;;;;;;;;6217269;22;20411;-90
2023/12/02 03:19:18;;;;;;;20.30;10.20;;;;;;;;;;6214434;23;20383;-90
2023/12/02 03:21:44;;;;;;;22.20;11.73;;;;;;;;;;6286610;22;20434;-90
2023/12/02 03:24:10;;;;;;;23.70;13.03;;;;;;;;;;6285768;22;20776;-89
2023/12/02 03:26:36;;;;;;;20.30;10.90;;;;;;;;;;6282622;22;20368;-91
2023/12/02 03:29:02;;;;;;;15.53;10.30;;;;;;;;;;6285044;22;20460;-91
2023/12/02 03:31:28;;;;;;;24.93;13.27;;;;;;;;;;6284951;22;20398;-91
2023/12/02 03:33:54;;;;;;;20.77;12.50;;;;;;;;;;6286351;22;20412;-90
2023/12/02 03:36:20;;;;;;;22.10;12.87;;;;;;;;;;6285171;22;20368;-89
2023/12/02 03:38:46;;;;;;;27.00;13.63;;;;;;;;;;6286533;22;20629;-91
2023/12/02 03:41:12;;;;;;;21.03;10.03;;;;;;;;;;6285978;22;20367;-91
2023/12/02 03:43:38;;;;;;;18.57;11.87;;;;;;;;;;6288101;22;20395;-89
2023/12/02 03:46:04;;;;;;;21.67;12.27;;;;;;;;;;6285858;22;20380;-90
2023/12/02 03:48:31;;;;;;;27.20;13.50;;;;;;;;;;6286552;22;20895;-91
2023/12/02 03:50:58;;;;;;;29.93;14.63;;;;;;;;;;6285484;22;20384;-90
2023/12/02 03:53:24;;;;;;;21.10;11.90;;;;;;;;;;6288977;22;20388;-90
2023/12/02 03:55:50;;;;;;;24.53;12.90;;;;;;;;;;6289358;22;20390;-91
2023/12/02 03:58:16;;;;;;;24.50;11.70;;;;;;;;;;6284282;22;20391;-91
2023/12/02 04:00:42;;;;;;;29.10;16.00;;;;;;;;;;6285507;22;20369;-91
2023/12/02 04:03:08;;;;;;;29.60;15.20;;;;;;;;;;6285109;22;20371;-91
2023/12/02 04:05:34;;;;;;;21.30;11.70;;;;;;;;;;6286675;22;20420;-91
2023/12/02 04:08:00;;;;;;;26.23;15.50;;;;;;;;;;6282619;22;20722;-89
2023/12/02 04:10:26;;;;;;;21.57;13.47;;;;;;;;;;6285648;22;20372;-90
2023/12/02 04:12:52;;;;;;;20.70;12.30;;;;;;;;;;6284363;22;20383;-90
2023/12/02 04:15:18;;;;;;;21.33;11.90;;;;;;;;;;6285206;22;20361;-89
2023/12/02 04:17:44;;;;;;;26.97;12.93;;;;;;;;;;6284083;22;20364;-90
2023/12/02 04:20:15;;;;;;;14.80;10.57;;;;;;;;;;6284556;22;20539;-91
2023/12/02 04:22:41;;;;;;;13.57;8.33;;;;;;;;;;6285060;22;20372;-89
2023/12/02 04:25:07;;;;;;;13.13;7.43;;;;;;;;;;6288314;22;20777;-90
2023/12/02 04:27:33;;;;;;;22.20;11.83;;;;;;;;;;6284954;22;20412;-90
2023/12/02 04:29:59;;;;;;;19.37;10.10;;;;;;;;;;6284868;22;20452;-90
2023/12/02 04:32:25;;;;;;;24.97;12.43;;;;;;;;;;6285775;22;20847;-90
2023/12/02 04:34:51;;;;;;;16.40;9.40;;;;;;;;;;6288621;22;20463;-90
2023/12/02 04:37:17;;;;;;;20.73;12.17;;;;;;;;;;6288969;22;20380;-90
2023/12/02 04:39:43;;;;;;;23.40;14.30;;;;;;;;;;6287407;22;20391;-91
2023/12/02 04:42:09;;;;;;;19.93;11.50;;;;;;;;;;6287524;22;20464;-90
2023/12/02 04:44:35;;;;;;;21.53;12.73;;;;;;;;;;6286068;22;20507;-91
2023/12/02 04:47:01;;;;;;;20.93;8.97;;;;;;;;;;6287418;22;20369;-91
2023/12/02 04:49:27;;;;;;;22.90;12.40;;;;;;;;;;6286263;22;20383;-90
2023/12/02 04:51:53;;;;;;;19.13;11.83;;;;;;;;;;6287368;22;20849;-90
2023/12/02 04:54:19;;;;;;;19.37;10.70;;;;;;;;;;6284185;22;20364;-90
2023/12/02 04:56:45;;;;;;;15.73;11.17;;;;;;;;;;6289419;22;20461;-90
2023/12/02 04:59:11;;;;;;;15.60;10.53;;;;;;;;;;6284750;22;20467;-90
2023/12/02 05:01:38;;;;;;;19.30;12.37;;;;;;;;;;6288200;22;20372;-90
2023/12/02 05:04:05;;;;;;;16.53;10.37;;;;;;;;;;6288370;22;20420;-90
2023/12/02 05:06:31;;;;;;;19.13;11.33;;;;;;;;;;6286449;22;20388;-90
2023/12/02 05:08:57;;;;;;;13.17;8.73;;;;;;;;;;6288306;22;20828;-90
2023/12/02 05:11:23;;;;;;;15.43;9.17;;;;;;;;;;6286810;22;20432;-91
2023/12/02 05:13:53;;;;;;;21.30;14.70;;;;;;;;;;6287215;22;20384;-90
2023/12/02 05:16:19;;;;;;;15.87;10.83;;;;;;;;;;6287266;22;20837;-91
2023/12/02 05:18:45;;;;;;;14.10;8.83;;;;;;;;;;6287849;22;20392;-90
2023/12/02 05:21:12;;;;;;;22.90;14.23;;;;;;;;;;6286175;22;20878;-91
2023/12/02 05:23:38;;;;;;;16.10;10.17;;;;;;;;;;6286415;22;20389;-91
2023/12/02 05:26:04;;;;;;;18.07;8.77;;;;;;;;;;6286549;22;20369;-91
2023/12/02 05:28:30;;;;;;;16.33;9.20;;;;;;;;;;6290738;22;21082;-90
2023/12/02 05:30:56;;;;;;;19.17;11.47;;;;;;;;;;6286432;22;20472;-94
2023/12/02 05:33:22;;;;;;;22.50;14.37;;;;;;;;;;6292353;22;20736;-93
2023/12/02 05:35:48;;;;;;;16.03;10.93;;;;;;;;;;6289922;22;20369;-92
2023/12/02 05:38:15;;;;;;;20.47;11.20;;;;;;;;;;6288106;22;20408;-89
2023/12/02 05:40:41;;;;;;;20.07;12.77;;;;;;;;;;6286259;22;20376;-87
2023/12/02 05:43:07;;;;;;;14.90;9.57;;;;;;;;;;6288830;22;20367;-90
2023/12/02 05:45:33;;;;;;;16.33;10.70;;;;;;;;;;6285778;22;21029;-89
2023/12/02 05:47:59;;;;;;;15.40;9.00;;;;;;;;;;6285743;22;20411;-88
2023/12/02 05:50:25;;;;;;;14.57;8.80;;;;;;;;;;6286436;22;20377;-91
2023/12/02 05:52:51;;;;;;;26.30;14.10;;;;;;;;;;6288214;22;20749;-91
2023/12/02 05:55:17;;;;;;;23.17;12.03;;;;;;;;;;6286391;22;20455;-91
2023/12/02 05:57:44;;;;;;;19.53;10.83;;;;;;;;;;6289120;22;20716;-91
2023/12/02 06:00:10;;;;;;;18.23;11.40;;;;;;;;;;6289614;22;20376;-90
2023/12/02 06:02:39;;;;;;;23.27;13.60;;;;;;;;;;6287323;22;20391;-90
2023/12/02 06:05:06;;;;;;;24.77;12.97;;;;;;;;;;6287214;22;20823;-88
2023/12/02 06:07:32;;;;;;;16.40;11.37;;;;;;;;;;6287350;22;20407;-89
2023/12/02 06:09:58;;;;;;;17.90;10.87;;;;;;;;;;6289110;22;20376;-89
2023/12/02 06:12:24;;;;;;;16.73;9.70;;;;;;;;;;6287922;22;20449;-89
2023/12/02 06:14:50;;;;;;;23.00;15.60;;;;;;;;;;6287553;22;20361;-87
2023/12/02 06:17:16;;;;;;;24.77;13.33;;;;;;;;;;6287270;22;20461;-89
2023/12/02 06:19:42;;;;;;;18.93;11.77;;;;;;;;;;6288638;22;20376;-90
2023/12/02 06:22:08;;;;;;;15.33;9.80;;;;;;;;;;6287961;22;20384;-89
2023/12/02 06:24:34;;;;;;;27.97;13.07;;;;;;;;;;6289834;22;20484;-90
2023/12/02 06:27:00;;;;;;;20.03;12.97;;;;;;;;;;6287403;22;20380;-88
2023/12/02 06:29:26;;;;;;;19.23;13.77;;;;;;;;;;6292628;22;20392;-89
2023/12/02 06:31:53;;;;;;;24.87;11.77;;;;;;;;;;6286854;22;20435;-89
2023/12/02 06:34:19;;;;;;;17.63;11.97;;;;;;;;;;6288026;22;20380;-88
2023/12/02 06:36:45;;;;;;;20.63;11.53;;;;;;;;;;6287936;22;20378;-90
2023/12/02 06:39:15;;;;;;;19.87;11.20;;;;;;;;;;6291352;22;20361;-88
2023/12/02 06:41:41;;;;;;;19.10;14.00;;;;;;;;;;6288557;22;20368;-90
2023/12/02 06:44:07;;;;;;;20.70;10.97;;;;;;;;;;6288740;22;20864;-90
2023/12/02 06:46:33;;;;;;;19.43;14.30;;;;;;;;;;6292343;22;20368;-90
2023/12/02 06:49:00;;;;;;;16.00;9.80;;;;;;;;;;6290250;22;20379;-91
2023/12/02 06:51:29;;;;;;;21.23;10.43;;;;;;;;;;6289841;22;20392;-92
2023/12/02 06:53:58;;;;;;;18.40;11.10;;;;;;;;;;6288498;22;20377;-91
2023/12/02 06:56:25;;;;;;;22.37;12.90;;;;;;;;;;6288682;22;20373;-90
2023/12/02 06:58:51;;;;;;;14.20;8.87;;;;;;;;;;6289754;22;20384;-91
2023/12/02 07:01:24;;;;;;;28.63;14.10;;;;;;;;;;6290759;22;20458;-91
2023/12/02 07:03:50;;;;;;;24.97;15.27;;;;;;;;;;6290459;22;20376;-90
2023/12/02 07:06:16;;;;;;;25.33;13.00;;;;;;;;;;6290625;22;20907;-90
2023/12/02 07:08:42;;;;;;;28.10;17.03;;;;;;;;;;6290343;22;20429;-91
2023/12/02 07:11:08;;;;;;;28.30;14.60;;;;;;;;;;6288724;22;20419;-91
2023/12/02 07:13:37;;;;;;;14.60;10.03;;;;;;;;;;6289834;22;20365;-90
2023/12/02 07:16:03;;;;;;;22.33;12.67;;;;;;;;;;6289807;22;20406;-89
2023/12/02 07:18:29;;;;;;;24.23;11.73;;;;;;;;;;6286177;22;20395;-90
2023/12/02 07:20:55;;;;;;;17.97;11.60;;;;;;;;;;6284605;22;20437;-91
2023/12/02 07:23:22;;;;;;;24.77;15.33;;;;;;;;;;6285948;22;20373;-91
2023/12/02 07:25:48;;;;;;;25.83;13.90;;;;;;;;;;6287829;22;20420;-91
2023/12/02 07:28:14;;;;;;;20.20;10.93;;;;;;;;;;6287301;22;20392;-90
2023/12/02 07:30:40;;;;;;;17.10;12.13;;;;;;;;;;6287871;22;20831;-91
2023/12/02 07:33:06;;;;;;;22.57;14.90;;;;;;;;;;6287417;22;20387;-90
2023/12/02 07:35:32;;;;;;;18.27;13.90;;;;;;;;;;6288414;22;20698;-91
2023/12/02 07:37:59;;;;;;;23.83;14.10;;;;;;;;;;6300859;22;20376;-95
2023/12/02 07:40:25;;;;;;;22.67;11.87;;;;;;;;;;6289258;22;20425;-91
2023/12/02 07:42:51;;;;;;;17.03;10.60;;;;;;;;;;6287128;22;20828;-92
2023/12/02 07:45:17;;;;;;;19.43;11.90;;;;;;;;;;6287748;22;20503;-89
2023/12/02 07:47:43;;;;;;;30.83;15.90;;;;;;;;;;6288771;22;20760;-92
2023/12/02 07:50:09;;;;;;;21.90;13.60;;;;;;;;;;6290959;22;20728;-92
2023/12/02 07:52:35;;;;;;;20.47;12.30;;;;;;;;;;6292224;22;20999;-95
2023/12/02 07:55:02;;;;;;;15.33;12.00;;;;;;;;;;6294385;22;20431;-93
2023/12/02 07:57:28;;;;;;;22.77;11.50;;;;;;;;;;6293910;22;20368;-93
2023/12/02 07:59:57;;;;;;;19.50;12.10;;;;;;;;;;6293555;22;20388;-93
2023/12/02 08:02:24;;;;;;;18.60;11.80;;;;;;;;;;6293482;22;20367;-91
2023/12/02 08:04:52;;;;;;;19.53;9.83;;;;;;;;;;6294062;22;20407;-92
2023/12/02 08:07:18;;;;;;;14.47;10.37;;;;;;;;;;6296622;22;20353;-92
2023/12/02 08:09:44;;;;;;;16.10;10.50;;;;;;;;;;6295812;22;20372;-92
2023/12/02 08:12:13;;;;;;;16.77;9.63;;;;;;;;;;6295504;22;20408;-93
2023/12/02 08:14:39;;;;;;;21.63;13.20;;;;;;;;;;6304292;22;20391;-91
2023/12/02 08:17:05;;;;;;;18.93;11.67;;;;;;;;;;6304284;22;20368;-91
2023/12/02 08:19:32;;;;;;;18.73;10.87;;;;;;;;;;6304234;22;20404;-91
2023/12/02 08:21:58;;;;;;;26.43;15.33;;;;;;;;;;6302361;22;20392;-90
2023/12/02 08:24:24;;;;;;;22.13;12.57;;;;;;;;;;6301474;22;20495;-91
2023/12/02 08:26:50;;;;;;;18.87;11.10;;;;;;;;;;6300595;22;20388;-91
2023/12/02 08:29:16;;;;;;;19.97;10.90;;;;;;;;;;6297308;22;20448;-92
2023/12/02 08:31:42;;;;;;;19.00;11.37;;;;;;;;;;6300975;22;20435;-90
2023/12/02 08:34:08;;;;;;;20.20;12.90;;;;;;;;;;6297609;22;20384;-90
2023/12/02 08:36:34;;;;;;;22.40;14.17;;;;;;;;;;6298663;22;20448;-91
2023/12/02 08:39:02;;;;;;;23.50;10.20;;;;;;;;;;6298852;22;20387;-91
2023/12/02 08:41:28;;;;;;;28.43;11.17;;;;;;;;;;6300625;22;20386;-91
2023/12/02 08:43:54;;;;;;;23.47;11.57;;;;;;;;;;6298476;22;20384;-91
2023/12/02 08:46:20;;;;;;;17.63;9.87;;;;;;;;;;6298753;22;20420;-91
2023/12/02 08:48:46;;;;;;;18.00;10.43;;;;;;;;;;6298639;22;20365;-91
2023/12/02 08:51:12;;;;;;;15.00;9.83;;;;;;;;;;6301054;22;20368;-91
2023/12/02 08:53:38;;;;;;;13.97;11.07;;;;;;;;;;6294595;22;20400;-92
2023/12/02 08:56:05;;;;;;;13.80;8.90;;;;;;;;;;6295847;22;20380;-92
2023/12/02 08:58:31;;;;;;;21.20;14.03;;;;;;;;;;6293259;22;20384;-90
2023/12/02 09:00:57;;;;;;;18.03;12.10;;;;;;;;;;6292273;22;20381;-91
2023/12/02 09:03:23;;;;;;;16.77;9.33;;;;;;;;;;6294788;22;20380;-90
2023/12/02 09:05:50;;;;;;;17.03;9.03;;;;;;;;;;6290841;22;20424;-90
2023/12/02 09:08:16;;;;;;;16.30;9.80;;;;;;;;;;6290744;22;20606;-87
2023/12/02 09:10:42;;;;;;;14.30;9.43;;;;;;;;;;6249626;23;20905;-88
2023/12/02 09:13:28;;;;;;;19.90;12.27;;;;;;;;;;6200316;23;20382;-88
2023/12/02 09:15:54;;;;;;;16.37;6.93;;;;;;;;;;6234306;23;20385;-88
2023/12/02 09:18:40;;;;;;;18.13;10.40;;;;;;;;;;6201677;23;20579;-88
2023/12/02 09:21:18;;;;;;;14.27;9.03;;;;;;;;;;6225494;23;20390;-88
2023/12/02 09:23:44;;;;;;;13.33;10.13;;;;;;;;;;6202532;23;20390;-90
2023/12/02 09:26:24;;;;;;;16.00;10.70;;;;;;;;;;6202697;23;20385;-92
2023/12/02 09:28:50;;;;;;;17.90;12.20;;;;;;;;;;6203522;23;20834;-89
2023/12/02 09:31:16;;;;;;;22.70;12.93;;;;;;;;;;6202145;23;20505;-88
2023/12/02 09:33:42;;;;;;;19.47;11.50;;;;;;;;;;6199983;23;20810;-88
2023/12/02 09:36:08;;;;;;;17.47;9.40;;;;;;;;;;6201345;23;20385;-88
2023/12/02 09:38:34;;;;;;;24.63;15.63;;;;;;;;;;6224787;23;20374;-88
2023/12/02 09:41:08;;;;;;;14.20;8.27;;;;;;;;;;6215930;22;20412;-90
2023/12/02 09:43:36;;;;;;;15.87;10.67;;;;;;;;;;6287979;22;20380;-91
2023/12/02 09:46:02;;;;;;;13.10;9.23;;;;;;;;;;6290434;22;20511;-86
2023/12/02 09:48:29;;;;;;;23.13;14.27;;;;;;;;;;6286766;22;20373;-86
2023/12/02 09:51:15;;;;;;;18.20;11.30;;;;;;;;;;6288602;22;20376;-88
2023/12/02 09:53:45;;;;;;;13.07;8.40;;;;;;;;;;6277204;22;20365;-85
2023/12/02 09:56:15;;;;;;;16.50;10.30;;;;;;;;;;6289194;22;20737;-89
2023/12/02 09:58:54;;;;;;;15.03;9.77;;;;;;;;;;6287559;22;20391;-90
2023/12/02 10:01:39;;;;;;;17.60;11.07;;;;;;;;;;6288695;22;20368;-90
2023/12/02 10:04:12;;;;;;;17.33;10.20;;;;;;;;;;6290033;22;20427;-89
2023/12/02 10:06:51;;;;;;;19.33;12.20;;;;;;;;;;6287577;22;20785;-87
2023/12/02 10:09:36;;;;;;;15.77;9.93;;;;;;;;;;6286830;22;20412;-89
2023/12/02 10:12:11;;;;;;;15.17;9.43;;;;;;;;;;6291153;22;20392;-89
2023/12/02 10:14:38;;;;;;;16.60;11.00;;;;;;;;;;6286548;22;20399;-89
2023/12/02 10:17:04;;;;;;;26.93;14.47;;;;;;;;;;6289714;22;20373;-87
2023/12/02 10:19:31;;;;;;;12.70;9.13;;;;;;;;;;6285409;22;20380;-89
2023/12/02 10:21:57;;;;;;;12.80;9.80;;;;;;;;;;6285504;22;20381;-89
2023/12/02 10:24:26;;;;;;;18.50;12.37;;;;;;;;;;6287669;22;20416;-88
2023/12/02 10:27:04;;;;;;;22.10;13.10;;;;;;;;;;6288359;22;20718;-89
2023/12/02 10:29:38;;;;;;;16.77;10.70;;;;;;;;;;6283120;22;20380;-88
2023/12/02 10:32:04;;;;;;;13.93;9.40;;;;;;;;;;6285742;22;20481;-90
2023/12/02 10:34:53;;;;;;;20.10;13.70;;;;;;;;;;6288788;22;20819;-88
2023/12/02 10:37:20;;;;;;;16.40;10.10;;;;;;;;;;6276829;22;20373;-89
2023/12/02 10:39:48;;;;;;;14.47;10.07;;;;;;;;;;6288657;22;20372;-89
2023/12/02 10:42:27;;;;;;;16.20;9.53;;;;;;;;;;6287673;22;20908;-90
2023/12/02 10:44:56;;;;;;;14.07;9.10;;;;;;;;;;6290771;22;20903;-86
2023/12/02 10:47:22;;;;;;;17.80;11.37;;;;;;;;;;6287522;22;20411;-91
2023/12/02 10:49:48;;;;;;;20.47;9.20;;;;;;;;;;6287543;22;20385;-89
2023/12/02 10:52:14;;;;;;;14.80;9.40;;;;;;;;;;6286156;22;20482;-89
2023/12/02 10:54:41;;;;;;;13.87;9.30;;;;;;;;;;6288230;22;20408;-90
2023/12/02 10:57:08;;;;;;;13.83;10.23;;;;;;;;;;6291555;22;20452;-90
2023/12/02 10:59:35;;;;;;;15.80;8.30;;;;;;;;;;6287171;22;20380;-91
2023/12/02 11:02:24;;;;;;;11.23;8.23;;;;;;;;;;6289113;22;20379;-91
2023/12/02 11:04:51;;;;;;;19.40;9.57;;;;;;;;;;6260548;22;20423;-91
2023/12/02 11:07:18;;;;;;;15.40;11.00;;;;;;;;;;6291840;22;20381;-93
2023/12/02 11:09:50;;;;;;;16.00;9.83;;;;;;;;;;6288505;22;20704;-90
2023/12/02 11:12:16;;;;;;;15.00;10.40;;;;;;;;;;6289776;22;20467;-90
2023/12/02 11:14:43;;;;;;;13.13;9.00;;;;;;;;;;6289659;22;20502;-91
2023/12/02 11:17:18;;;;;;;10.47;6.00;;;;;;;;;;6292276;22;20404;-91
2023/12/02 11:20:07;;;;;;;15.57;9.33;;;;;;;;;;6288805;22;20372;-91
2023/12/02 11:22:41;;;;;;;17.40;8.70;;;;;;;;;;6286886;22;20728;-92
2023/12/02 11:25:11;;;;;;;14.60;8.40;;;;;;;;;;6286594;22;20424;-92
2023/12/02 11:27:53;;;;;;;16.67;8.70;;;;;;;;;;6288338;22;20863;-90
2023/12/02 11:30:39;;;;;;;15.17;9.37;;;;;;;;;;6286950;22;20406;-91
2023/12/02 11:33:24;;;;;;;19.43;7.53;;;;;;;;;;6288944;22;21230;-92
2023/12/02 11:36:09;;;;;;;12.63;9.27;;;;;;;;;;6289355;22;20376;-90
2023/12/02 11:38:35;;;;;;;9.47;6.27;;;;;;;;;;6291529;22;20364;-91
2023/12/02 11:41:04;;;;;;;11.50;8.43;;;;;;;;;;6288504;22;20381;-88
2023/12/02 11:43:34;;;;;;;16.97;9.43;;;;;;;;;;6289954;22;20376;-92
2023/12/02 11:46:03;;;;;;;15.77;10.80;;;;;;;;;;6290025;22;20490;-91
2023/12/02 11:49:02;;;;;;;10.60;5.47;;;;;;;;;;6289673;22;20423;-90
2023/12/02 11:51:49;;;;;;;15.67;10.43;;;;;;;;;;6264462;22;20383;-90
2023/12/02 11:54:21;;;;;;;8.10;7.30;;;;;;;;;;6289360;22;20365;-92
2023/12/02 11:57:11;;;;;;;8.77;6.80;;;;;;;;;;6288481;22;20746;-92
2023/12/02 11:59:41;;;;;;;10.93;6.50;;;;;;;;;;6291471;22;20608;-91
2023/12/02 12:02:52;;;;;;;10.37;6.30;;;;;;;;;;6287084;22;20376;-94
2023/12/02 12:05:38;;;;;;;9.73;7.53;;;;;;;;;;6297349;22;20732;-90
2023/12/02 12:08:17;;;;;;;10.77;8.07;;;;;;;;;;6255743;22;20397;-92
2023/12/02 12:10:43;;;;;;;11.20;7.07;;;;;;;;;;6263267;22;20443;-89
2023/12/02 12:13:11;;;;;;;10.73;8.23;;;;;;;;;;6284138;22;20848;-89
2023/12/02 12:15:38;;;;;;;8.60;6.90;;;;;;;;;;6284897;22;20377;-89
2023/12/02 12:18:04;;;;;;;11.40;7.00;;;;;;;;;;6285529;22;20380;-88
2023/12/02 12:20:31;;;;;;;13.43;7.23;;;;;;;;;;6286911;22;20383;-89
2023/12/02 12:22:57;;;;;;;9.27;6.60;;;;;;;;;;6283870;22;20867;-88
2023/12/02 12:25:28;;;;;;;9.80;7.13;;;;;;;;;;6285819;22;20454;-90
2023/12/02 12:27:54;;;;;;;9.93;7.77;;;;;;;;;;6285290;22;20489;-88
2023/12/02 12:30:29;;;;;;;11.20;7.40;;;;;;;;;;6284545;22;20360;-88
2023/12/02 12:32:55;;;;;;;11.90;8.57;;;;;;;;;;6282632;22;20856;-87
2023/12/02 12:35:23;;;;;;;11.30;7.20;;;;;;;;;;6285810;22;21081;-87
2023/12/02 12:37:52;;;;;;;16.40;7.57;;;;;;;;;;6282935;22;20380;-88
2023/12/02 12:40:18;;;;;;;10.63;7.70;;;;;;;;;;6284920;22;20349;-88
2023/12/02 12:42:50;;;;;;;9.10;7.97;;;;;;;;;;6281172;22;20403;-87
2023/12/02 12:45:17;;;;;;;8.13;6.20;;;;;;;;;;6282713;22;20518;-88
2023/12/02 12:47:43;;;;;;;9.53;7.70;;;;;;;;;;6281819;22;20384;-87
2023/12/02 12:50:12;;;;;;;9.70;6.60;;;;;;;;;;6281203;22;20409;-87
2023/12/02 12:52:41;;;;;;;14.07;7.57;;;;;;;;;;6276964;22;20445;-88
2023/12/02 12:55:07;;;;;;;9.07;5.53;;;;;;;;;;6287339;22;20384;-87
2023/12/02 12:57:36;;;;;;;9.23;7.43;;;;;;;;;;6282736;22;21123;-87
2023/12/02 13:00:03;;;;;;;9.93;8.93;;;;;;;;;;6282525;22;20468;-87
2023/12/02 13:02:36;;;;;;;19.47;7.20;;;;;;;;;;6282253;22;20415;-87
2023/12/02 13:05:09;;;;;;;10.60;6.70;;;;;;;;;;6282227;22;20512;-86
2023/12/02 13:07:39;;;;;;;8.60;5.47;;;;;;;;;;6282971;22;20809;-87
2023/12/02 13:10:06;;;;;;;11.43;6.93;;;;;;;;;;6285568;22;20372;-87
2023/12/02 13:12:33;;;;;;;8.93;7.27;;;;;;;;;;6257790;22;20449;-86
2023/12/02 13:15:01;;;;;;;8.33;6.83;;;;;;;;;;6284585;22;20444;-85
2023/12/02 13:17:27;;;;;;;10.77;6.53;;;;;;;;;;6282546;22;20377;-86
2023/12/02 13:19:53;;;;;;;9.93;7.60;;;;;;;;;;6284105;22;20444;-85
2023/12/02 13:22:19;;;;;;;9.53;6.33;;;;;;;;;;6284217;22;20380;-88
2023/12/02 13:25:13;;;;;;;10.37;8.10;;;;;;;;;;6286034;22;20419;-85
2023/12/02 13:27:40;;;;;;;7.90;6.30;;;;;;;;;;6283370;22;20398;-88
2023/12/02 13:30:08;;;;;;;10.27;7.33;;;;;;;;;;6288602;22;20404;-87
2023/12/02 13:32:44;;;;;;;10.73;6.60;;;;;;;;;;6285298;22;20377;-87
2023/12/02 13:35:11;;;;;;;10.10;6.67;;;;;;;;;;6283677;22;20395;-87
2023/12/02 13:37:37;;;;;;;6.83;5.27;;;;;;;;;;6288046;22;20368;-87
2023/12/02 13:40:04;;;;;;;7.77;5.97;;;;;;;;;;6285525;22;20373;-86
2023/12/02 13:42:32;;;;;;;8.37;5.73;;;;;;;;;;6290221;22;20387;-88
2023/12/02 13:45:04;;;;;;;9.57;5.33;;;;;;;;;;6287196;22;20435;-88
2023/12/02 13:47:39;;;;;;;6.00;5.40;;;;;;;;;;6289484;22;20360;-86
2023/12/02 13:50:05;;;;;;;8.13;5.90;;;;;;;;;;6283500;22;20372;-87
2023/12/02 13:52:40;;;;;;;6.97;4.10;;;;;;;;;;6285264;22;20496;-87
2023/12/02 13:55:10;;;;;;;6.13;4.27;;;;;;;;;;6311949;22;20389;-86
2023/12/02 13:57:47;;;;;;;6.20;4.60;;;;;;;;;;6286510;22;20890;-87
2023/12/02 14:00:13;;;;;;;5.83;4.53;;;;;;;;;;6287405;22;20373;-88
2023/12/02 14:02:40;;;;;;;8.87;4.43;;;;;;;;;;6284026;22;20356;-87
2023/12/02 14:05:09;;;;;;;7.07;5.30;;;;;;;;;;6289066;22;20416;-86
2023/12/02 14:07:48;;;;;;;10.00;6.00;;;;;;;;;;6285383;22;20384;-87
2023/12/02 14:10:16;;;;;;;7.90;5.67;;;;;;;;;;6287373;22;20387;-87
2023/12/02 14:12:44;;;;;;;6.13;5.53;;;;;;;;;;6282895;22;20384;-90
2023/12/02 14:15:23;;;;;;;9.77;6.97;;;;;;;;;;6286884;22;21122;-88
2023/12/02 14:18:01;;;;;;;5.80;5.27;;;;;;;;;;6285179;22;20474;-88
2023/12/02 14:20:37;;;;;;;8.47;6.40;;;;;;;;;;6286773;22;20400;-87
2023/12/02 14:23:12;;;;;;;6.63;4.90;;;;;;;;;;6285020;22;20369;-87
2023/12/02 14:25:42;;;;;;;10.17;7.33;;;;;;;;;;6286067;22;20420;-86
2023/12/02 14:28:27;;;;;;;7.53;4.60;;;;;;;;;;6282473;22;20381;-88
2023/12/02 14:30:58;;;;;;;7.20;5.97;;;;;;;;;;6283138;22;20457;-87